LiveATC.Net - Listen to live air traffic control over the Internet! Contact for advertising information

ICAO: YBTL  IATA: TSV   Airport: Townsville Airport
City: Townsville   State/Province: Queensland
Country: Australia   Continent: Oceania
YBTL METAR Weather: YBTL 091700Z AUTO 13009KT 9999 // SCT035 BKN047 OVC097 22/15 Q1020
YBTL Flight Activity (FlightAware)
YBTL App/Center
Feed Status: UP   Listeners: 2
Listen right in your browser - requires Flash (in browser, requires Flash)
Click here to listen with your own player (launches your MP3 player)
YBTL App/Center Audio Archives
Brisbane Center120.550
Townsville Approach/Departure126.800
Townsville Ground121.800
Townsville Tower118.300

Townsville Arrivals/Departures


Unauthorized use prohibited. See Terms of Service

Find LiveATC Audio Streams

Airport/ARTCC Code

(e.g., 124.400, 128.75)
Site-wide search

Browse LiveATC Feeds
LiveATC Coverage Map
Top 50 LiveATC Feeds
Bad Weather Areas

Offer a LiveATC Feed
Press Inquiries

LiveATC on iPhone
LiveATC on Android

Windows Phone
Windows 8/10

LiveATC Mobile
(Mobile browser)

ATC Audio Archives
Interesting Recordings

LiveATC Forums

Home Page
Make a Donation
LiveATC Bookstore

Terms of Use
Privacy Policy

ATC/Radar Sites
U.S. ARTCC Freqs
Canadian Air Freqs


FAA Airport Status
Nat'l Airspace Status
Arrival Demand Charts

Server Software By:

Please make a donation to help us keep growing!